Time;durP1;ratioP1;P1;durP2;ratioP2;P2;SDS_P1;SDS_P2;PMS_P1;PMS_P2;Temp;Humidity;BMP_temperature;BMP_pressure;BME280_temperature;BME280_humidity;BME280_pressure;Samples;Min_cycle;Max_cycle;Signal;HPM_P1;HPM_P2
2023/01/27 00:01:15;;;;;;;124.70;37.37;;;2.00;99.90;;;0.91;95.89;101657.69;5030155;28;21167;-72
2023/01/27 00:03:43;;;;;;;135.05;38.80;;;2.00;99.90;;;0.92;95.85;101649.72;5030238;28;20486;-72
2023/01/27 00:06:11;;;;;;;114.07;36.25;;;2.00;99.90;;;0.93;95.93;101645.28;5029913;28;20407;-72
2023/01/27 00:08:41;;;;;;;129.93;37.17;;;2.00;99.90;;;0.94;95.16;101636.44;5029714;28;20910;-72
2023/01/27 00:13:56;;;;;;;126.45;36.80;;;2.00;99.90;;;0.95;95.73;101643.44;5029380;28;21067;-73
2023/01/27 00:16:24;;;;;;;127.72;37.42;;;2.00;99.90;;;0.96;95.76;101645.13;5029808;28;20418;-72
2023/01/27 00:18:52;;;;;;;160.15;41.22;;;2.00;99.90;;;0.96;95.58;101639.84;5029885;28;20418;-72
2023/01/27 00:26:57;;;;;;;108.38;35.08;;;2.00;99.90;;;0.97;96.87;101638.94;5029205;28;20823;-72
2023/01/27 00:29:25;;;;;;;93.50;32.85;;;2.10;99.90;;;1.00;97.06;101636.13;5029271;28;21207;-72
2023/01/27 00:34:40;;;;;;;110.32;36.38;;;2.10;99.90;;;1.00;97.07;101631.72;5029244;28;20435;-73
2023/01/27 00:37:08;;;;;;;117.18;36.42;;;2.10;99.90;;;1.02;96.62;101634.28;5029547;28;20406;-72
2023/01/27 00:39:38;;;;;;;100.85;35.17;;;2.20;99.90;;;1.03;96.62;101630.69;5028820;28;20895;-73
2023/01/27 00:42:06;;;;;;;90.40;33.35;;;2.10;99.90;;;1.06;96.40;101640.25;5028682;28;20796;-72
2023/01/27 00:44:34;;;;;;;98.53;35.03;;;2.20;99.90;;;1.06;96.50;101638.47;5028678;28;20403;-73
2023/01/27 00:47:03;;;;;;;99.97;35.08;;;2.20;99.90;;;1.05;96.96;101634.13;5028675;28;20415;-73
2023/01/27 00:49:31;;;;;;;100.17;34.53;;;2.20;99.90;;;1.07;96.44;101642.81;5029477;28;20454;-73
2023/01/27 00:51:59;;;;;;;111.07;36.47;;;2.20;99.90;;;1.07;96.91;101637.53;5029113;28;20414;-73
2023/01/27 00:54:27;;;;;;;95.75;33.80;;;2.20;99.90;;;1.09;96.90;101640.97;5028641;28;20423;-73
2023/01/27 00:56:56;;;;;;;103.93;35.88;;;2.20;99.90;;;1.10;96.43;101642.63;5028459;28;20406;-72
2023/01/27 00:59:24;;;;;;;107.88;35.80;;;2.20;99.90;;;1.10;96.31;101650.56;5024973;28;20432;-73
2023/01/27 01:01:52;;;;;;;100.88;35.35;;;2.20;99.90;;;1.11;96.93;101660.19;5028166;28;20851;-73
2023/01/27 01:04:21;;;;;;;83.90;32.60;;;2.20;99.90;;;1.10;97.08;101650.56;5028899;28;20833;-73
2023/01/27 01:06:49;;;;;;;81.47;31.55;;;2.20;99.90;;;1.11;96.44;101654.91;5028631;28;20403;-73
2023/01/27 01:09:17;;;;;;;76.07;30.98;;;2.20;99.90;;;1.12;96.98;101664.53;5028165;28;20940;-73
2023/01/27 01:11:45;;;;;;;87.93;33.13;;;2.20;99.90;;;1.13;96.40;101657.47;5028976;28;20504;-73
2023/01/27 01:14:14;;;;;;;79.63;32.33;;;2.30;99.90;;;1.13;96.38;101658.31;5028623;28;20423;-73
2023/01/27 01:16:42;;;;;;;84.82;32.35;;;2.20;99.90;;;1.14;96.30;101665.28;5028548;28;20457;-73
2023/01/27 01:19:11;;;;;;;90.65;34.03;;;2.20;99.90;;;1.14;96.46;101662.66;5028647;28;20415;-72
2023/01/27 01:21:39;;;;;;;76.82;32.35;;;2.30;99.90;;;1.16;96.30;101671.38;5028328;28;20410;-73
2023/01/27 01:24:08;;;;;;;88.28;33.13;;;2.20;99.90;;;1.17;97.03;101670.41;5028792;28;20407;-73
2023/01/27 01:26:36;;;;;;;70.35;30.98;;;2.30;99.90;;;1.18;96.50;101674.75;5028171;28;20952;-73
2023/01/27 01:29:04;;;;;;;79.38;32.17;;;2.30;99.90;;;1.18;96.30;101680.03;5028401;28;20426;-73
2023/01/27 01:31:34;;;;;;;68.87;30.57;;;2.30;99.90;;;1.20;96.85;101679.97;5028427;28;20410;-73
2023/01/27 01:34:02;;;;;;;74.18;31.35;;;2.30;99.90;;;1.21;96.63;101685.16;5028098;28;21169;-73
2023/01/27 01:36:30;;;;;;;71.15;29.73;;;2.30;99.90;;;1.25;96.63;101684.06;5028175;28;20411;-73
2023/01/27 01:38:58;;;;;;;62.67;28.92;;;2.40;99.90;;;1.25;96.46;101681.44;5027570;28;20410;-73
2023/01/27 01:41:27;;;;;;;64.97;28.95;;;2.40;99.90;;;1.27;96.31;101678.69;5028174;28;20406;-73
2023/01/27 01:43:55;;;;;;;72.13;30.17;;;2.30;99.90;;;1.28;96.64;101683.91;5027823;28;20429;-74
2023/01/27 01:46:23;;;;;;;64.85;29.50;;;2.40;99.90;;;1.29;96.78;101675.06;5028009;28;20477;-72
2023/01/27 01:48:57;;;;;;;63.40;29.33;;;2.40;99.90;;;1.31;96.86;101677.63;5027587;28;20530;-73
2023/01/27 01:51:33;;;;;;;68.05;29.63;;;2.40;99.90;;;1.31;96.56;101678.47;5028459;28;20399;-73
2023/01/27 01:54:08;;;;;;;70.00;30.73;;;2.40;99.90;;;1.33;97.00;101676.63;5028124;28;20781;-73
2023/01/27 01:56:42;;;;;;;73.75;30.55;;;2.40;99.90;;;1.34;96.47;101678.31;5027499;28;20403;-73
2023/01/27 01:59:17;;;;;;;69.33;30.53;;;2.30;99.90;;;1.35;96.89;101674.75;5028149;28;20430;-73
2023/01/27 02:01:46;;;;;;;66.15;29.85;;;2.40;99.90;;;1.34;96.81;101675.69;5028197;28;20418;-74
2023/01/27 02:04:22;;;;;;;66.03;31.23;;;2.40;99.90;;;1.35;97.06;101680.03;5028286;28;20403;-73
2023/01/27 02:06:58;;;;;;;69.97;30.40;;;2.40;99.90;;;1.36;97.55;101683.53;5031062;28;20403;-73
2023/01/27 02:09:29;;;;;;;65.13;30.07;;;2.40;99.90;;;1.37;97.50;101683.44;5034300;28;20464;-73
2023/01/27 02:11:59;;;;;;;65.35;28.73;;;2.50;99.90;;;1.37;97.48;101675.53;5034467;28;20402;-73
2023/01/27 02:14:27;;;;;;;60.90;27.88;;;2.50;99.90;;;1.38;96.96;101690.44;5035018;28;20422;-73
2023/01/27 02:16:55;;;;;;;70.50;29.23;;;2.50;99.90;;;1.37;97.26;101679.97;5034226;28;20414;-72
2023/01/27 02:19:36;;;;;;;63.77;28.27;;;2.50;99.90;;;1.37;97.01;101683.44;5034566;28;20407;-73
2023/01/27 02:22:10;;;;;;;60.10;28.52;;;2.40;99.90;;;1.38;97.39;101685.16;5034831;28;20405;-73
2023/01/27 02:24:47;;;;;;;55.43;27.23;;;2.50;99.90;;;1.37;97.23;101688.72;5034285;28;20406;-72
2023/01/27 02:27:17;;;;;;;55.67;27.42;;;2.50;99.90;;;1.40;98.02;101685.94;5034450;28;20426;-73
2023/01/27 02:29:45;;;;;;;62.50;27.95;;;2.40;99.90;;;1.40;97.72;101688.56;5034233;28;21022;-72
2023/01/27 02:32:24;;;;;;;55.67;26.50;;;2.50;99.90;;;1.40;97.45;101683.31;5034067;28;20407;-72
2023/01/27 02:34:54;;;;;;;50.88;25.58;;;2.50;99.90;;;1.41;97.54;101689.41;5033943;28;20422;-73
2023/01/27 02:37:24;;;;;;;54.80;26.13;;;2.50;99.90;;;1.43;97.18;101685.78;5033369;28;20414;-73
2023/01/27 02:39:55;;;;;;;53.97;26.15;;;2.60;99.90;;;1.42;97.39;101686.69;5033718;28;20410;-72
2023/01/27 02:42:24;;;;;;;56.13;25.88;;;2.50;99.90;;;1.44;97.76;101678.69;5034159;28;20881;-72
2023/01/27 02:44:52;;;;;;;56.10;25.88;;;2.50;99.90;;;1.44;97.20;101684.81;5034129;28;20394;-73
2023/01/27 02:47:21;;;;;;;50.67;24.90;;;2.60;99.90;;;1.45;97.62;101678.63;5033909;28;20414;-72
2023/01/27 02:49:49;;;;;;;48.97;24.30;;;2.60;99.90;;;1.46;97.75;101685.63;5034199;28;20433;-73
2023/01/27 02:52:18;;;;;;;46.08;23.75;;;2.60;99.90;;;1.46;97.68;101682.97;5034115;28;20482;-72
2023/01/27 02:54:46;;;;;;;53.30;25.00;;;2.60;99.90;;;1.48;97.55;101685.53;5034327;28;20427;-73
2023/01/27 02:57:14;;;;;;;50.73;24.83;;;2.60;99.90;;;1.49;97.40;101687.25;5033824;28;20867;-73
2023/01/27 02:59:44;;;;;;;43.20;23.40;;;2.60;99.90;;;1.49;97.52;101697.78;5034639;28;20410;-72
2023/01/27 03:02:21;;;;;;;43.60;23.93;;;2.70;99.90;;;1.50;97.42;101703.00;5034321;28;20945;-73
2023/01/27 03:04:50;;;;;;;42.80;23.10;;;2.60;99.90;;;1.50;97.27;101703.00;5034419;28;20441;-73
2023/01/27 03:07:18;;;;;;;41.90;22.50;;;2.60;99.90;;;1.52;97.03;101713.47;5033991;28;20406;-73
2023/01/27 03:09:46;;;;;;;49.72;24.85;;;2.60;99.90;;;1.53;97.74;101709.91;5033388;28;20403;-73
2023/01/27 03:12:20;;;;;;;48.88;25.52;;;2.60;99.90;;;1.53;97.57;101708.13;5033655;28;20407;-73
2023/01/27 03:20:24;;;;;;;47.42;23.80;;;2.70;99.90;;;1.57;97.88;101710.59;5030772;28;20411;-73
2023/01/27 03:22:52;;;;;;;56.53;26.30;;;2.70;99.90;;;1.59;97.27;101719.28;5031077;28;20406;-72
2023/01/27 03:25:20;;;;;;;55.47;26.63;;;2.70;99.90;;;1.60;97.38;101716.56;5030835;28;20403;-73
2023/01/27 03:27:49;;;;;;;53.30;25.43;;;2.70;99.90;;;1.60;97.41;101721.00;5030845;28;20407;-73
2023/01/27 03:30:19;;;;;;;52.25;25.90;;;2.70;99.90;;;1.60;97.67;101707.78;5030518;28;20784;-72
2023/01/27 03:32:53;;;;;;;58.45;26.35;;;2.70;99.90;;;1.61;97.06;101712.16;5030721;28;20915;-73
2023/01/27 03:35:22;;;;;;;55.03;26.45;;;2.70;99.90;;;1.60;97.53;101711.28;5030931;28;20421;-73
2023/01/27 03:46:18;;;;;;;57.38;27.05;;;2.70;99.90;;;1.63;97.61;101715.56;5031414;28;20410;-71
2023/01/27 03:48:50;;;;;;;56.10;26.15;;;2.70;99.90;;;1.62;97.56;101719.97;5031081;28;20838;-73
2023/01/27 03:51:20;;;;;;;53.45;25.67;;;2.70;99.90;;;1.64;97.53;101707.56;5030649;28;20403;-73
2023/01/27 03:53:49;;;;;;;46.00;24.23;;;2.80;99.90;;;1.65;97.56;101711.88;5030737;28;20417;-72
2023/01/27 03:56:19;;;;;;;63.23;28.07;;;2.70;99.90;;;1.67;97.74;101712.69;5030005;28;20517;-73
2023/01/27 03:58:49;;;;;;;58.63;27.67;;;2.80;99.90;;;1.66;97.63;101715.38;5030193;28;20513;-73
2023/01/27 04:01:22;;;;;;;50.97;24.85;;;2.80;99.90;;;1.68;97.59;101708.25;5029937;28;20411;-72
2023/01/27 04:06:53;;;;;;;52.10;25.73;;;2.70;99.90;;;1.68;97.44;101716.19;5030069;28;20414;-72
2023/01/27 04:09:24;;;;;;;52.00;26.58;;;2.80;99.90;;;1.69;97.63;101710.81;5029507;28;20433;-72
2023/01/27 04:11:54;;;;;;;56.83;26.17;;;2.80;99.90;;;1.71;97.80;101721.28;5030071;28;20414;-72
2023/01/27 04:14:26;;;;;;;52.70;26.60;;;2.80;99.90;;;1.71;97.66;101716.03;5030113;28;20395;-72
2023/01/27 04:16:59;;;;;;;53.97;26.52;;;2.80;99.90;;;1.71;97.56;101723.94;5029890;28;20411;-74
2023/01/27 04:19:28;;;;;;;57.60;27.37;;;2.80;99.90;;;1.71;97.92;101724.78;5029989;28;20427;-72
2023/01/27 04:21:58;;;;;;;55.65;26.98;;;2.80;99.90;;;1.73;97.86;101724.69;5029956;28;20429;-73
2023/01/27 04:24:26;;;;;;;57.60;27.08;;;2.80;99.90;;;1.74;97.62;101729.06;5029874;28;20415;-72
2023/01/27 04:26:57;;;;;;;46.45;25.25;;;2.80;99.90;;;1.73;98.28;101729.97;5029722;28;20433;-73
2023/01/27 04:29:29;;;;;;;63.53;27.88;;;2.80;99.90;;;1.75;97.67;101741.28;5029205;28;20880;-72
2023/01/27 04:31:58;;;;;;;48.47;25.10;;;2.80;99.90;;;1.75;98.00;101742.16;5029967;28;20395;-72
2023/01/27 04:34:27;;;;;;;50.08;25.70;;;2.80;99.90;;;1.77;98.21;101744.72;5029520;28;20489;-73
2023/01/27 04:36:56;;;;;;;52.42;26.05;;;2.80;99.90;;;1.79;97.95;101742.84;5029450;28;20441;-73
2023/01/27 04:39:25;;;;;;;50.97;26.25;;;2.90;99.90;;;1.79;98.23;101737.56;5029564;28;20403;-72
2023/01/27 04:41:53;;;;;;;50.17;25.70;;;2.90;99.90;;;1.80;97.83;101740.16;5029758;28;20410;-74
2023/01/27 04:44:21;;;;;;;47.72;25.58;;;2.90;99.90;;;1.83;98.16;101747.03;5029637;28;20408;-73
2023/01/27 04:46:50;;;;;;;45.20;25.48;;;2.90;99.90;;;1.83;98.25;101754.97;5029201;28;20440;-73
2023/01/27 04:49:19;;;;;;;47.40;24.60;;;2.90;99.90;;;1.85;98.58;101750.47;5029623;28;20406;-73
2023/01/27 04:51:47;;;;;;;44.20;23.33;;;2.90;99.90;;;1.87;98.19;101761.78;5029560;28;20894;-73
2023/01/27 04:54:15;;;;;;;41.67;23.88;;;2.90;99.90;;;1.87;98.18;101752.09;5029487;28;20414;-73
2023/01/27 04:56:57;;;;;;;38.95;22.40;;;2.90;99.90;;;1.89;98.39;101765.19;5029608;28;20458;-73
2023/01/27 04:59:25;;;;;;;33.78;20.58;;;3.00;99.90;;;1.88;98.34;101753.78;5029045;28;20410;-72
2023/01/27 05:01:54;;;;;;;35.63;21.23;;;3.00;99.90;;;1.91;98.17;101758.06;5028986;28;20449;-74
2023/01/27 05:04:25;;;;;;;35.58;21.38;;;3.00;99.90;;;1.92;98.35;101762.41;5029151;28;20434;-73
2023/01/27 05:06:53;;;;;;;32.13;20.13;;;3.00;99.90;;;1.93;98.29;101762.31;5028993;28;20400;-73
2023/01/27 05:09:21;;;;;;;29.00;20.40;;;3.00;99.90;;;1.94;98.07;101763.19;5029115;28;20415;-73
2023/01/27 05:11:49;;;;;;;35.65;21.65;;;3.00;99.90;;;1.97;98.21;101770.94;5028679;28;20411;-73
2023/01/27 05:14:18;;;;;;;34.42;20.65;;;3.00;99.90;;;1.98;98.17;101767.38;5028642;28;20444;-73
2023/01/27 05:16:46;;;;;;;31.90;20.10;;;3.10;99.90;;;1.98;98.17;101780.59;5028558;28;20473;-73
2023/01/27 05:19:14;;;;;;;27.20;18.95;;;3.10;99.90;;;1.98;98.03;101785.88;5028811;28;20414;-74
2023/01/27 05:21:44;;;;;;;32.33;20.20;;;3.10;99.90;;;2.00;98.14;101789.25;5028816;28;20491;-74
2023/01/27 05:24:12;;;;;;;26.27;18.27;;;3.10;99.90;;;2.01;98.00;101791.84;5028863;28;20414;-73
2023/01/27 05:26:40;;;;;;;31.20;19.58;;;3.10;99.90;;;2.01;98.33;101786.56;5028163;28;20403;-74
2023/01/27 05:29:09;;;;;;;27.83;18.33;;;3.10;99.90;;;2.02;97.86;101787.41;5028535;28;20753;-74
2023/01/27 05:31:38;;;;;;;28.05;18.85;;;3.10;99.90;;;2.03;98.33;101791.75;5028923;28;20414;-73
2023/01/27 05:34:06;;;;;;;25.17;18.15;;;3.10;99.90;;;2.04;98.35;101793.47;5028589;28;20478;-73
2023/01/27 05:36:34;;;;;;;23.73;17.30;;;3.10;99.90;;;2.05;98.20;101795.19;5028285;28;20422;-73
2023/01/27 05:39:04;;;;;;;26.58;18.02;;;3.10;99.90;;;2.08;98.46;101797.66;5028238;28;20426;-74
2023/01/27 05:41:35;;;;;;;24.33;17.35;;;3.10;99.90;;;2.08;98.55;101796.78;5028071;28;20413;-73
2023/01/27 05:44:04;;;;;;;20.23;15.50;;;3.20;99.90;;;2.11;98.29;101797.50;5028427;28;20410;-73
2023/01/27 05:46:33;;;;;;;20.23;15.95;;;3.20;99.90;;;2.15;98.55;101796.41;5028384;28;20414;-73
2023/01/27 05:49:04;;;;;;;22.80;15.73;;;3.20;99.90;;;2.15;98.39;101796.41;5028178;28;21115;-73
2023/01/27 05:51:35;;;;;;;22.42;14.85;;;3.20;99.90;;;2.15;98.53;101799.03;5028280;28;20777;-73
2023/01/27 05:54:05;;;;;;;18.10;14.48;;;3.20;99.90;;;2.16;98.50;101807.81;5028421;28;20788;-73
2023/01/27 05:56:34;;;;;;;18.73;13.32;;;3.20;99.90;;;2.15;98.52;101804.31;5028128;28;20415;-73
2023/01/27 05:59:02;;;;;;;21.20;14.20;;;3.20;99.90;;;2.18;98.63;101808.59;5028417;28;20494;-73
2023/01/27 06:01:33;;;;;;;17.23;12.93;;;3.20;99.90;;;2.18;98.07;101814.72;5028190;28;20417;-73
2023/01/27 06:04:01;;;;;;;17.70;12.68;;;3.30;99.90;;;2.20;98.14;101823.41;5028336;28;20410;-73
2023/01/27 06:06:32;;;;;;;17.75;13.23;;;3.30;99.90;;;2.22;98.54;101821.56;5028113;28;20410;-74
2023/01/27 06:09:01;;;;;;;17.30;12.18;;;3.30;99.90;;;2.20;98.50;101826.06;5028111;28;20407;-74
2023/01/27 06:11:30;;;;;;;14.73;11.15;;;3.20;99.90;;;2.22;98.48;101828.63;5028284;28;20407;-73
2023/01/27 06:13:58;;;;;;;15.02;10.95;;;3.30;99.90;;;2.23;98.29;101831.19;5027870;28;20412;-74
2023/01/27 06:16:27;;;;;;;13.73;10.13;;;3.30;99.90;;;2.24;98.11;101835.53;5027702;28;20419;-73
2023/01/27 06:18:55;;;;;;;13.13;9.73;;;3.30;99.90;;;2.26;98.28;101828.38;5028101;28;20406;-72
2023/01/27 06:21:23;;;;;;;12.00;9.30;;;3.30;99.90;;;2.29;98.03;101837.94;5027903;28;20402;-74
2023/01/27 06:23:52;;;;;;;10.75;9.10;;;3.30;99.90;;;2.27;98.06;101840.66;5028114;28;20425;-73
2023/01/27 06:26:20;;;;;;;11.27;9.20;;;3.30;99.90;;;2.27;97.74;101835.38;5027602;28;20407;-74
2023/01/27 06:28:49;;;;;;;12.63;9.40;;;3.30;99.90;;;2.28;98.47;101839.72;5027344;28;20411;-73
2023/01/27 06:31:21;;;;;;;11.13;8.57;;;3.30;99.90;;;2.27;98.09;101840.66;5028100;28;20407;-72
2023/01/27 06:33:50;;;;;;;10.63;8.57;;;3.30;99.90;;;2.29;97.80;101838.81;5027943;28;20895;-72
2023/01/27 06:36:21;;;;;;;10.02;7.85;;;3.30;99.90;;;2.32;98.49;101837.78;5027755;28;20423;-73
2023/01/27 06:38:50;;;;;;;7.90;6.45;;;3.40;99.90;;;2.30;98.26;101842.28;5027702;28;20414;-73
2023/01/27 06:41:19;;;;;;;7.30;6.32;;;3.30;99.90;;;2.30;98.00;101840.50;5027642;28;20406;-72
2023/01/27 06:43:48;;;;;;;8.40;6.30;;;3.40;99.90;;;2.30;98.14;101840.50;5027869;28;20407;-73
2023/01/27 06:46:16;;;;;;;6.90;5.75;;;3.30;99.90;;;2.31;97.70;101834.28;5027830;28;20410;-72
2023/01/27 06:48:44;;;;;;;7.82;5.68;;;3.40;99.90;;;2.29;97.87;101841.44;5027842;28;20468;-73
2023/01/27 06:51:13;;;;;;;7.38;6.20;;;3.40;99.90;;;2.30;97.45;101840.50;5027500;28;20406;-73
2023/01/27 06:53:41;;;;;;;6.88;5.60;;;3.40;99.90;;;2.30;97.55;101840.50;5029960;28;20407;-73
2023/01/27 06:56:09;;;;;;;8.05;5.70;;;3.40;99.90;;;2.31;97.54;101841.34;5031011;28;20434;-73
2023/01/27 06:58:37;;;;;;;6.30;5.40;;;3.40;99.90;;;2.33;97.69;101852.72;5031185;28;20922;-73
2023/01/27 07:01:07;;;;;;;7.07;5.45;;;3.40;99.90;;;2.32;97.56;101859.78;5030037;28;20423;-73
2023/01/27 07:03:35;;;;;;;8.73;6.07;;;3.40;99.90;;;2.33;97.71;101850.06;5031509;28;20410;-73
2023/01/27 07:06:03;;;;;;;6.22;5.43;;;3.40;99.90;;;2.33;97.14;101858.81;5030714;28;20501;-73
2023/01/27 07:08:31;;;;;;;7.13;5.80;;;3.30;99.90;;;2.33;97.70;101856.19;5031218;28;20399;-73
2023/01/27 07:11:04;;;;;;;8.13;6.00;;;3.40;99.90;;;2.32;97.70;101864.19;5030880;28;20411;-73
2023/01/27 07:13:32;;;;;;;5.32;4.78;;;3.40;99.90;;;2.30;97.66;101861.63;5030781;28;20502;-73
2023/01/27 07:16:00;;;;;;;7.15;5.05;;;3.30;99.90;;;2.31;97.38;101866.00;5030493;28;20447;-73
2023/01/27 07:18:29;;;;;;;6.60;5.45;;;3.40;99.90;;;2.31;97.24;101878.34;5030892;28;20410;-73
2023/01/27 07:20:58;;;;;;;6.10;5.43;;;3.30;99.90;;;2.30;97.68;101873.97;5030600;28;20779;-73
2023/01/27 07:23:26;;;;;;;5.93;4.53;;;3.40;99.90;;;2.31;97.63;101878.34;5031136;28;20403;-73
2023/01/27 07:25:54;;;;;;;6.30;4.60;;;3.30;99.90;;;2.29;97.32;101886.38;5030662;28;20402;-73
2023/01/27 07:28:22;;;;;;;6.80;4.85;;;3.30;99.90;;;2.29;97.02;101886.38;5030833;28;20407;-73
2023/01/27 07:30:50;;;;;;;5.77;4.90;;;3.40;99.90;;;2.32;97.17;101888.84;5030892;28;20494;-73
2023/01/27 07:33:18;;;;;;;6.68;4.93;;;3.40;99.90;;;2.33;97.06;101897.63;5030813;28;20895;-73
2023/01/27 07:35:49;;;;;;;5.70;4.70;;;3.40;99.90;;;2.33;96.68;101893.19;5030888;28;20896;-73
2023/01/27 07:38:17;;;;;;;6.60;5.00;;;3.40;99.90;;;2.33;96.91;101903.75;5030971;28;20912;-73
2023/01/27 07:40:45;;;;;;;6.45;4.93;;;3.40;99.90;;;2.33;96.49;101903.75;5030584;28;21113;-73
2023/01/27 07:43:14;;;;;;;7.25;4.85;;;3.40;99.90;;;2.33;96.53;101893.19;5030628;28;21061;-73
2023/01/27 07:45:42;;;;;;;5.20;4.68;;;3.40;99.90;;;2.36;96.33;101892.19;5030231;28;20399;-74
2023/01/27 07:48:11;;;;;;;5.55;4.75;;;3.40;99.90;;;2.35;96.54;101907.19;5030826;28;20465;-74
2023/01/27 07:50:41;;;;;;;6.38;4.80;;;3.40;99.90;;;2.35;96.01;101901.91;5030548;28;20749;-73
2023/01/27 07:53:11;;;;;;;5.10;4.60;;;3.40;99.90;;;2.36;95.90;101908.03;5030984;28;20446;-73
2023/01/27 07:55:39;;;;;;;4.97;4.47;;;3.40;99.90;;;2.36;96.05;101900.94;5030904;28;20388;-73
2023/01/27 07:58:08;;;;;;;5.00;4.50;;;3.40;99.90;;;2.36;95.70;101914.16;5029773;28;20430;-64
2023/01/27 08:00:36;;;;;;;24.43;22.60;;;3.40;99.90;;;2.39;96.32;101924.59;5029953;28;20757;-72
2023/01/27 08:03:05;;;;;;;5.43;4.83;;;3.40;99.90;;;2.38;96.05;101930.81;5029930;28;20962;-72
2023/01/27 08:05:34;;;;;;;5.55;4.53;;;3.40;99.90;;;2.38;95.62;101928.16;5029166;28;20403;-71
2023/01/27 08:08:03;;;;;;;6.22;4.43;;;3.50;99.90;;;2.38;96.00;101920.22;5029684;28;20406;-72
2023/01/27 08:10:33;;;;;;;5.80;4.32;;;3.40;99.90;;;2.37;95.96;101931.72;5030089;28;20953;-72
2023/01/27 08:13:01;;;;;;;4.03;3.60;;;3.40;99.90;;;2.36;95.28;101929.19;5029951;28;20403;-72
2023/01/27 08:15:29;;;;;;;4.90;3.73;;;3.40;99.90;;;2.36;95.53;101935.28;5029872;28;20956;-72
2023/01/27 08:17:59;;;;;;;5.13;3.83;;;3.40;99.90;;;2.37;95.05;101949.38;5029730;28;20430;-71
2023/01/27 08:20:28;;;;;;;5.70;3.55;;;3.40;99.90;;;2.37;94.61;101947.59;5029493;28;20914;-73
2023/01/27 08:22:56;;;;;;;4.68;3.42;;;3.50;99.90;;;2.36;94.71;101951.16;5029981;28;20756;-72
2023/01/27 08:25:25;;;;;;;4.68;3.50;;;3.40;99.90;;;2.38;95.04;101954.59;5029680;28;20437;-71
2023/01/27 08:27:56;;;;;;;4.75;3.28;;;3.40;99.90;;;2.38;94.38;101961.66;5029840;28;20403;-71
2023/01/27 08:30:25;;;;;;;4.70;3.07;;;3.40;99.90;;;2.36;94.91;101956.44;5029690;28;20402;-71
2023/01/27 08:32:55;;;;;;;4.32;3.00;;;3.40;99.90;;;2.36;94.15;101956.44;5029532;28;20884;-73
2023/01/27 08:35:23;;;;;;;4.78;2.80;;;3.40;99.90;;;2.37;94.33;101968.72;5029638;28;20409;-74
2023/01/27 08:37:51;;;;;;;4.80;2.88;;;3.40;99.90;;;2.38;94.42;101965.16;5029473;28;20427;-72
2023/01/27 08:40:19;;;;;;;5.10;2.95;;;3.40;99.90;;;2.36;94.00;101972.28;5029555;28;20403;-73
2023/01/27 08:42:50;;;;;;;4.68;2.90;;;3.40;99.90;;;2.38;94.12;101975.72;5029395;28;20415;-72
2023/01/27 08:45:20;;;;;;;3.45;2.60;;;3.40;99.90;;;2.38;94.41;101974.88;5029474;28;20407;-72
2023/01/27 08:47:48;;;;;;;6.47;2.80;;;3.40;99.90;;;2.38;94.12;101975.72;5029279;28;20447;-72
2023/01/27 08:50:16;;;;;;;4.78;3.08;;;3.40;99.90;;;2.38;93.81;101978.38;5029311;28;20411;-72
2023/01/27 08:52:44;;;;;;;5.82;2.85;;;3.40;99.90;;;2.40;94.21;101978.28;5029303;28;20468;-72
2023/01/27 08:55:14;;;;;;;3.97;2.70;;;3.40;99.90;;;2.41;94.03;101982.63;5029105;28;20437;-73
2023/01/27 08:57:42;;;;;;;3.70;2.85;;;3.40;99.90;;;2.44;94.33;101979.84;5028864;28;20427;-73
2023/01/27 09:00:12;;;;;;;3.28;2.45;;;3.50;99.90;;;2.44;93.04;101972.78;5028693;28;20406;-73
2023/01/27 09:02:42;;;;;;;3.37;2.43;;;3.50;99.90;;;2.45;93.00;101984.19;5029170;28;20450;-71
2023/01/27 09:05:14;;;;;;;3.50;2.50;;;3.50;99.90;;;2.46;93.56;101989.44;5029140;28;20433;-73
2023/01/27 09:07:42;;;;;;;4.43;2.42;;;3.50;99.90;;;2.48;93.14;101995.47;5028695;28;20489;-71
2023/01/27 09:10:12;;;;;;;3.13;2.03;;;3.50;99.90;;;2.49;93.45;101997.19;5028570;28;20438;-70
2023/01/27 09:12:43;;;;;;;3.35;2.40;;;3.50;99.90;;;2.49;92.89;101993.69;5027437;28;21162;-70
2023/01/27 09:15:13;;;;;;;2.80;2.42;;;3.60;99.90;;;2.49;92.91;101991.91;5028444;28;21047;-70
2023/01/27 09:17:43;;;;;;;3.35;2.30;;;3.60;99.90;;;2.50;92.28;102001.53;5027552;28;20429;-71
2023/01/27 09:20:13;;;;;;;4.30;2.20;;;3.60;99.90;;;2.52;92.61;102004.97;5028488;28;20411;-70
2023/01/27 09:22:42;;;;;;;3.90;2.13;;;3.60;99.90;;;2.51;92.09;102008.53;5026933;28;20959;-70
2023/01/27 09:25:15;;;;;;;3.97;2.20;;;3.60;99.90;;;2.53;91.78;102000.53;5026520;28;20414;-70
2023/01/27 09:27:43;;;;;;;3.50;2.13;;;3.60;99.90;;;2.55;92.08;102004.81;5027696;28;20418;-70
2023/01/27 09:30:14;;;;;;;4.10;2.05;;;3.60;99.90;;;2.56;92.18;102005.66;5028373;28;20875;-70
2023/01/27 09:32:44;;;;;;;3.88;2.08;;;3.60;99.90;;;2.58;92.29;102008.22;5028425;28;20888;-71
2023/01/27 09:35:13;;;;;;;3.05;2.20;;;3.60;99.90;;;2.58;91.85;102016.16;5027955;28;20411;-71
2023/01/27 09:37:49;;;;;;;3.33;2.15;;;3.60;99.90;;;2.58;91.80;102013.50;5028175;28;20510;-70
2023/01/27 09:40:31;;;;;;;3.92;2.10;;;3.60;99.90;;;2.59;91.15;102009.94;5028233;28;20410;-70
2023/01/27 09:43:43;;;;;;;3.03;2.25;;;3.60;99.90;;;2.60;91.95;102014.28;5028236;28;20422;-70
2023/01/27 09:46:53;;;;;;;5.75;2.55;;;3.60;99.90;;;2.60;91.94;102016.94;5027702;28;20430;-69
2023/01/27 09:49:45;;;;;;;5.00;2.53;;;3.60;99.90;;;2.61;91.57;102013.34;5006666;28;20472;-70
2023/01/27 09:52:53;;;;;;;5.30;2.45;;;3.60;99.90;;;2.62;91.87;102015.06;5028110;28;20796;-70
2023/01/27 09:55:34;;;;;;;4.47;2.38;;;3.60;99.90;;;2.63;91.78;102016.78;5028139;28;20422;-69
2023/01/27 09:58:14;;;;;;;3.10;2.17;;;3.60;99.90;;;2.64;91.81;102007.91;5027667;28;20442;-69
2023/01/27 10:01:00;;;;;;;3.85;2.15;;;3.70;99.90;;;2.67;91.63;102020.97;5028032;28;20407;-69
2023/01/27 10:04:03;;;;;;;4.35;2.92;;;3.70;99.90;;;2.68;91.79;102020.03;5027869;28;20414;-72
2023/01/27 10:06:54;;;;;;;3.35;2.20;;;3.70;99.90;;;2.69;91.61;102017.31;5027613;28;20941;-73
2023/01/27 10:10:01;;;;;;;4.05;2.35;;;3.70;99.90;;;2.69;92.15;102012.03;5027847;28;20399;-72
2023/01/27 10:12:49;;;;;;;6.03;2.40;;;3.70;99.90;;;2.73;91.82;102015.38;5005215;28;20411;-71
2023/01/27 10:15:38;;;;;;;3.60;2.20;;;3.80;99.90;;;2.71;90.76;102015.44;5028041;28;20411;-71
2023/01/27 10:18:25;;;;;;;3.88;1.95;;;3.70;99.90;;;2.74;91.25;102014.44;5027732;28;20423;-73
2023/01/27 10:21:04;;;;;;;4.68;1.90;;;3.80;99.90;;;2.73;91.27;102023.31;5027846;28;20422;-71
2023/01/27 10:23:53;;;;;;;4.45;2.00;;;3.70;99.90;;;2.71;89.90;102009.28;5024740;28;20447;-72
2023/01/27 10:26:31;;;;;;;3.55;2.10;;;3.70;99.90;;;2.70;90.39;102007.59;5024338;28;20497;-71
2023/01/27 10:29:09;;;;;;;4.17;2.00;;;3.70;99.90;;;2.70;90.23;102002.31;5030873;28;20910;-71
2023/01/27 10:31:47;;;;;;;2.83;1.80;;;3.70;99.90;;;2.71;90.30;102004.00;5031987;28;20414;-71
2023/01/27 10:34:28;;;;;;;3.58;2.17;;;3.70;99.90;;;2.72;89.76;102016.28;5032076;28;20407;-71
2023/01/27 10:37:15;;;;;;;4.22;2.20;;;3.70;99.90;;;2.69;90.26;102017.31;5031540;28;20407;-71
2023/01/27 10:39:57;;;;;;;4.60;2.33;;;3.70;99.90;;;2.69;90.42;102011.16;5031861;28;20437;-72
2023/01/27 10:42:39;;;;;;;10.20;7.28;;;3.70;99.90;;;2.70;89.37;102020.81;5031429;28;21073;-70
2023/01/27 10:45:24;;;;;;;3.00;1.98;;;3.80;99.70;;;2.72;89.12;102021.59;5029718;28;20476;-70
2023/01/27 10:48:30;;;;;;;4.43;1.70;;;3.70;99.60;;;2.72;89.29;102021.59;5031278;28;20403;-71
2023/01/27 10:51:04;;;;;;;3.35;1.70;;;3.80;99.40;;;2.72;89.17;102027.72;5028293;28;20407;-71
2023/01/27 10:53:43;;;;;;;3.05;2.00;;;3.80;99.40;;;2.73;89.24;102033.88;5031423;28;20410;-70
2023/01/27 10:56:26;;;;;;;3.58;1.95;;;3.70;99.30;;;2.71;88.84;102031.31;5031375;28;20407;-72
2023/01/27 10:59:04;;;;;;;3.00;1.80;;;3.80;99.20;;;2.73;88.89;102025.94;5031475;28;20510;-71
2023/01/27 11:01:40;;;;;;;3.05;1.77;;;3.70;99.10;;;2.73;88.26;102033.88;5031570;28;20403;-71
2023/01/27 11:04:15;;;;;;;3.23;1.63;;;3.70;99.00;;;2.75;88.52;102018.78;5031563;28;20469;-71